createdAt,value
2023-05-20T00:01:31.529Z,2.25
2023-05-20T00:04:00.175Z,2.40
2023-05-20T00:06:28.841Z,2.38
2023-05-20T00:08:59.694Z,2.70
2023-05-20T00:11:29.651Z,2.45
2023-05-20T00:13:58.143Z,2.78
2023-05-20T00:16:26.569Z,2.80
2023-05-20T00:18:56.629Z,2.72
2023-05-20T00:21:25.053Z,2.60
2023-05-20T00:23:53.481Z,2.65
2023-05-20T00:26:22.529Z,2.55
2023-05-20T00:28:57.211Z,2.80
2023-05-20T00:31:26.125Z,2.65
2023-05-20T00:33:54.710Z,3.03
2023-05-20T00:36:23.128Z,2.60
2023-05-20T00:38:51.717Z,2.63
2023-05-20T00:41:21.464Z,2.58
2023-05-20T00:43:49.914Z,2.67
2023-05-20T00:46:19.811Z,2.63
2023-05-20T00:48:48.292Z,3.00
2023-05-20T00:51:16.700Z,2.47
2023-05-20T00:53:45.493Z,2.90
2023-05-20T00:56:13.995Z,3.17
2023-05-20T00:58:42.508Z,2.80
2023-05-20T01:01:11.061Z,2.70
2023-05-20T01:03:40.847Z,2.80
2023-05-20T01:06:09.583Z,2.90
2023-05-20T01:08:37.947Z,2.90
2023-05-20T01:11:08.466Z,2.80
2023-05-20T01:13:40.897Z,2.75
2023-05-20T01:16:10.485Z,2.88
2023-05-20T01:18:40.866Z,3.20
2023-05-20T01:21:12.217Z,2.70
2023-05-20T01:23:42.337Z,2.60
2023-05-20T01:26:13.672Z,3.00
2023-05-20T01:28:43.446Z,2.88
2023-05-20T01:31:16.188Z,2.95
2023-05-20T01:33:44.907Z,3.30
2023-05-20T01:36:13.902Z,2.95
2023-05-20T01:38:44.249Z,3.15
2023-05-20T01:41:13.951Z,3.00
2023-05-20T01:43:42.574Z,2.75
2023-05-20T01:46:11.092Z,2.88
2023-05-20T01:48:39.520Z,2.70
2023-05-20T01:51:08.014Z,3.05
2023-05-20T01:53:36.496Z,2.88
2023-05-20T01:56:06.717Z,2.90
2023-05-20T01:58:35.456Z,3.03
2023-05-20T02:01:04.655Z,2.88
2023-05-20T02:03:33.206Z,2.80
2023-05-20T02:06:01.656Z,3.20
2023-05-20T02:08:30.233Z,3.15
2023-05-20T02:10:58.658Z,3.45
2023-05-20T02:13:28.383Z,3.08
2023-05-20T02:15:57.113Z,3.03
2023-05-20T02:18:26.564Z,3.00
2023-05-20T02:20:55.079Z,3.20
2023-05-20T02:23:23.432Z,3.10
2023-05-20T02:25:51.814Z,2.88
2023-05-20T02:28:20.506Z,2.97
2023-05-20T02:30:52.008Z,2.80
2023-05-20T02:33:20.871Z,3.40
2023-05-20T02:35:49.693Z,3.08
2023-05-20T02:38:18.126Z,3.33
2023-05-20T02:40:46.536Z,3.22
2023-05-20T02:43:15.017Z,3.20
2023-05-20T02:45:43.764Z,3.10
2023-05-20T02:48:13.821Z,3.60
2023-05-20T02:50:42.573Z,3.47
2023-05-20T02:53:11.127Z,3.00
2023-05-20T02:55:39.513Z,2.95
2023-05-20T02:58:08.391Z,3.25
2023-05-20T03:00:40.936Z,3.20
2023-05-20T03:03:10.980Z,3.20
2023-05-20T03:05:42.471Z,3.40
2023-05-20T03:08:11.405Z,3.40
2023-05-20T03:10:39.743Z,3.15
2023-05-20T03:13:11.180Z,3.08
2023-05-20T03:15:39.777Z,3.22
2023-05-20T03:18:08.586Z,3.35
2023-05-20T03:20:38.388Z,3.80
2023-05-20T03:23:09.605Z,3.53
2023-05-20T03:25:38.798Z,3.50
2023-05-20T03:28:07.180Z,3.70
2023-05-20T03:30:37.828Z,3.63
2023-05-20T03:33:07.523Z,3.58
2023-05-20T03:35:36.356Z,3.80
2023-05-20T03:38:04.900Z,3.58
2023-05-20T03:40:36.719Z,3.55
2023-05-20T03:43:05.867Z,3.83
2023-05-20T03:45:35.107Z,3.50
2023-05-20T03:48:07.050Z,3.92
2023-05-20T03:50:36.992Z,3.80
2023-05-20T03:53:05.443Z,4.28
2023-05-20T03:55:41.001Z,3.78
2023-05-20T03:58:10.497Z,3.90
2023-05-20T04:00:39.694Z,3.90
2023-05-20T04:03:08.675Z,3.47
2023-05-20T04:05:37.631Z,3.78
2023-05-20T04:08:13.508Z,4.10
2023-05-20T04:10:44.046Z,3.80
2023-05-20T04:13:13.499Z,4.30
2023-05-20T04:15:42.908Z,4.20
2023-05-20T04:18:13.155Z,4.28
2023-05-20T04:20:42.529Z,4.28
2023-05-20T04:23:11.714Z,3.90
2023-05-20T04:25:41.254Z,4.25
2023-05-20T04:28:13.956Z,4.15
2023-05-20T04:30:42.342Z,3.80
2023-05-20T04:33:11.378Z,4.03
2023-05-20T04:35:41.570Z,4.00
2023-05-20T04:38:10.916Z,4.07
2023-05-20T04:40:40.917Z,3.58
2023-05-20T04:43:11.046Z,3.72
2023-05-20T04:45:40.236Z,4.63
2023-05-20T04:48:09.539Z,4.00
2023-05-20T04:50:39.213Z,4.32
2023-05-20T04:53:08.857Z,4.43
2023-05-20T04:55:38.946Z,4.22
2023-05-20T04:58:08.157Z,4.10
2023-05-20T05:00:37.850Z,4.00
2023-05-20T05:03:07.482Z,4.50
2023-05-20T05:05:36.931Z,4.93
2023-05-20T05:08:05.930Z,4.25
2023-05-20T05:10:37.347Z,4.65
2023-05-20T05:13:06.272Z,4.90
2023-05-20T05:15:35.189Z,5.18
2023-05-20T05:18:06.516Z,4.28
2023-05-20T05:20:36.503Z,4.43
2023-05-20T05:23:05.332Z,4.43
2023-05-20T05:25:34.847Z,4.75
2023-05-20T05:28:03.421Z,4.78
2023-05-20T05:30:32.517Z,4.97
2023-05-20T05:33:02.819Z,4.70
2023-05-20T05:35:33.129Z,4.20
2023-05-20T05:38:01.947Z,4.53
2023-05-20T05:40:31.858Z,4.72
2023-05-20T05:43:00.550Z,4.95
2023-05-20T05:45:29.066Z,4.88
2023-05-20T05:47:58.146Z,4.45
2023-05-20T05:50:27.274Z,4.72
2023-05-20T05:52:57.414Z,4.25
2023-05-20T05:55:26.512Z,4.40
2023-05-20T05:57:56.486Z,5.00
2023-05-20T06:00:25.114Z,4.50
2023-05-20T06:02:53.667Z,5.15
2023-05-20T06:05:35.261Z,5.15
2023-05-20T06:08:05.357Z,5.20
2023-05-20T06:10:35.756Z,5.47
2023-05-20T06:13:04.256Z,5.22
2023-05-20T06:15:33.697Z,5.47
2023-05-20T06:18:04.226Z,5.43
2023-05-20T06:20:33.753Z,5.10
2023-05-20T06:23:02.173Z,4.90
2023-05-20T06:25:43.104Z,5.03
2023-05-20T06:28:12.636Z,5.38
2023-05-20T06:30:41.130Z,5.60
2023-05-20T06:33:10.104Z,5.63
2023-05-20T06:35:38.548Z,5.35
2023-05-20T06:38:07.053Z,5.43
2023-05-20T06:40:35.622Z,5.50
2023-05-20T06:43:05.723Z,5.93
2023-05-20T06:45:50.736Z,5.85
2023-05-20T06:48:26.817Z,6.22
2023-05-20T06:50:55.228Z,7.63
2023-05-20T06:53:23.685Z,6.72
2023-05-20T06:55:52.672Z,6.07
2023-05-20T06:58:23.065Z,6.10
2023-05-20T07:01:11.772Z,6.15
2023-05-20T07:03:42.729Z,5.70
2023-05-20T07:06:11.277Z,6.38
2023-05-20T07:08:39.709Z,6.35
2023-05-20T07:11:08.319Z,6.15
2023-05-20T07:13:38.176Z,6.78
2023-05-20T07:16:07.589Z,6.43
2023-05-20T07:18:37.924Z,6.15
2023-05-20T07:21:06.308Z,6.60
2023-05-20T07:23:57.635Z,6.13
2023-05-20T07:26:26.059Z,6.60
2023-05-20T07:28:55.901Z,6.75
2023-05-20T07:31:25.182Z,6.53
2023-05-20T07:33:53.610Z,6.68
2023-05-20T07:36:22.113Z,6.20
2023-05-20T07:39:02.659Z,6.68
2023-05-20T07:41:35.477Z,6.13
2023-05-20T07:44:06.643Z,6.68
2023-05-20T07:46:38.155Z,6.55
2023-05-20T07:49:07.821Z,8.02
2023-05-20T07:51:36.874Z,6.57
2023-05-20T07:54:05.281Z,6.70
2023-05-20T07:56:34.240Z,6.78
2023-05-20T07:59:03.343Z,6.63
2023-05-20T08:01:38.055Z,6.75
2023-05-20T08:04:07.457Z,7.10
2023-05-20T08:06:37.230Z,7.07
2023-05-20T08:09:07.913Z,7.03
2023-05-20T08:11:40.643Z,6.50
2023-05-20T08:14:09.344Z,6.97
2023-05-20T08:16:45.152Z,7.00
2023-05-20T08:19:13.663Z,7.03
2023-05-20T08:21:42.483Z,6.20
2023-05-20T08:24:10.941Z,6.25
2023-05-20T08:26:39.386Z,6.35
2023-05-20T08:29:08.552Z,6.75
2023-05-20T08:31:37.176Z,6.97
2023-05-20T08:34:08.068Z,7.07
2023-05-20T08:36:36.702Z,6.43
2023-05-20T08:39:05.579Z,7.55
2023-05-20T08:41:34.020Z,7.82
2023-05-20T08:44:03.069Z,7.22
2023-05-20T08:46:33.112Z,7.95
2023-05-20T08:49:02.218Z,7.90
2023-05-20T08:51:34.127Z,7.75
2023-05-20T08:54:02.617Z,7.97
2023-05-20T08:56:31.626Z,7.88
2023-05-20T08:59:00.178Z,8.32
2023-05-20T09:01:28.802Z,7.60
2023-05-20T09:03:57.250Z,7.65
2023-05-20T09:06:25.608Z,7.72
2023-05-20T09:08:55.400Z,7.85
2023-05-20T09:11:23.807Z,8.23
2023-05-20T09:13:52.318Z,8.50
2023-05-20T09:16:20.828Z,8.77
2023-05-20T09:18:49.895Z,8.75
2023-05-20T09:21:18.426Z,7.70
2023-05-20T09:23:49.564Z,7.57
2023-05-20T09:26:22.074Z,8.07
2023-05-20T09:28:51.116Z,8.50
2023-05-20T09:31:19.542Z,8.35
2023-05-20T09:33:48.114Z,8.52
2023-05-20T09:36:17.147Z,7.32
2023-05-20T09:38:47.541Z,8.23
2023-05-20T09:41:16.846Z,8.57
2023-05-20T09:43:47.480Z,7.78
2023-05-20T09:46:16.859Z,7.65
2023-05-20T09:48:46.510Z,7.22
2023-05-20T09:51:15.617Z,7.47
2023-05-20T09:53:44.059Z,8.15
2023-05-20T09:56:12.658Z,8.35
2023-05-20T09:58:42.065Z,8.30
2023-05-20T10:01:11.902Z,8.85
2023-05-20T10:03:42.647Z,8.38
2023-05-20T10:06:24.556Z,8.35
2023-05-20T10:09:00.060Z,8.50
2023-05-20T10:11:42.181Z,8.65
2023-05-20T10:14:27.901Z,8.20
2023-05-20T10:17:07.834Z,8.05
2023-05-20T10:19:36.684Z,8.57
2023-05-20T10:22:05.753Z,8.65
2023-05-20T10:24:34.703Z,8.70
2023-05-20T10:27:07.332Z,8.45
2023-05-20T10:29:46.565Z,8.35
2023-05-20T10:32:53.465Z,8.32
2023-05-20T10:35:29.340Z,8.20
2023-05-20T10:38:09.343Z,7.95
2023-05-20T10:40:38.078Z,8.07
2023-05-20T10:43:16.704Z,8.25
2023-05-20T10:45:52.251Z,8.57
2023-05-20T10:48:27.311Z,8.85
2023-05-20T10:50:57.088Z,8.40
2023-05-20T10:53:33.523Z,8.50
2023-05-20T10:56:03.773Z,8.95
2023-05-20T10:58:38.614Z,7.82
2023-05-20T11:01:07.094Z,8.30
2023-05-20T11:03:38.065Z,7.72
2023-05-20T11:06:18.448Z,7.35
2023-05-20T11:12:20.363Z,7.70
2023-05-20T11:14:56.061Z,7.93
2023-05-20T11:17:26.438Z,8.95
2023-05-20T11:20:14.833Z,8.18
2023-05-20T11:22:57.427Z,7.72
2023-05-20T11:25:26.210Z,7.60
2023-05-20T11:27:54.744Z,7.63
2023-05-20T11:30:23.442Z,7.95
2023-05-20T11:33:27.726Z,8.02
2023-05-20T11:35:56.409Z,7.82
2023-05-20T11:38:26.657Z,8.38
2023-05-20T11:45:43.766Z,7.85
2023-05-20T11:48:13.110Z,7.22
2023-05-20T11:50:51.810Z,8.43
2023-05-20T11:53:21.379Z,7.72
2023-05-20T11:55:52.112Z,8.02
2023-05-20T12:01:42.080Z,8.35
2023-05-20T12:04:11.327Z,7.35
2023-05-20T12:06:43.408Z,7.90
2023-05-20T12:09:14.311Z,8.30
2023-05-20T12:11:46.060Z,7.70
2023-05-20T12:14:15.662Z,8.80
2023-05-20T12:16:44.046Z,8.25
2023-05-20T12:19:12.760Z,8.50
2023-05-20T12:21:41.508Z,8.45
2023-05-20T12:24:11.049Z,8.18
2023-05-20T12:26:40.522Z,7.95
2023-05-20T12:29:10.674Z,7.95
2023-05-20T12:34:33.058Z,8.23
2023-05-20T12:37:01.596Z,8.32
2023-05-20T12:39:30.121Z,8.27
2023-05-20T12:41:58.570Z,8.25
2023-05-20T12:44:38.352Z,8.65
2023-05-20T12:47:07.146Z,8.93
2023-05-20T12:49:35.656Z,8.77
2023-05-20T12:52:08.680Z,8.60
2023-05-20T12:54:43.127Z,8.25
2023-05-20T12:57:12.927Z,8.77
2023-05-20T12:59:42.666Z,8.68
2023-05-20T13:02:12.920Z,8.73
2023-05-20T13:04:44.906Z,8.15
2023-05-20T13:07:16.357Z,8.93
2023-05-20T13:09:49.370Z,9.63
2023-05-20T13:12:17.751Z,9.05
2023-05-20T13:14:48.985Z,8.45
2023-05-20T13:17:17.538Z,8.93
2023-05-20T13:19:46.732Z,9.40
2023-05-20T13:22:15.196Z,9.02
2023-05-20T13:24:43.628Z,8.40
2023-05-20T13:27:12.519Z,9.27
2023-05-20T13:29:41.956Z,9.30
2023-05-20T13:32:19.924Z,9.25
2023-05-20T13:34:48.513Z,9.85
2023-05-20T13:37:17.226Z,9.63
2023-05-20T13:39:45.776Z,9.50
2023-05-20T13:42:14.231Z,9.05
2023-05-20T13:44:43.030Z,10.18
2023-05-20T13:47:13.018Z,10.50
2023-05-20T13:49:41.481Z,9.88
2023-05-20T13:52:09.906Z,9.73
2023-05-20T13:54:38.342Z,9.57
2023-05-20T13:57:08.000Z,10.48
2023-05-20T13:59:36.657Z,9.48
2023-05-20T14:02:09.812Z,9.40
2023-05-20T14:04:44.812Z,9.48
2023-05-20T14:07:13.453Z,9.43
2023-05-20T14:09:41.850Z,9.75
2023-05-20T14:12:10.275Z,9.65
2023-05-20T14:14:38.669Z,9.80
2023-05-20T14:17:07.114Z,9.70
2023-05-20T14:19:35.551Z,9.43
2023-05-20T14:22:05.507Z,10.07
2023-05-20T14:24:33.858Z,10.30
2023-05-20T14:27:02.273Z,9.18
2023-05-20T14:29:30.772Z,9.85
2023-05-20T14:32:01.269Z,9.43
2023-05-20T14:34:29.720Z,9.45
2023-05-20T14:36:58.140Z,9.38
2023-05-20T14:39:27.886Z,9.60
2023-05-20T14:41:56.318Z,9.68
2023-05-20T14:44:24.644Z,9.48
2023-05-20T14:46:53.146Z,10.00
2023-05-20T14:49:21.645Z,10.25
2023-05-20T14:51:49.969Z,9.15
2023-05-20T14:54:19.098Z,10.02
2023-05-20T14:56:49.914Z,9.63
2023-05-20T14:59:18.481Z,9.52
2023-05-20T15:01:51.413Z,8.80
2023-05-20T15:04:23.264Z,9.45
2023-05-20T15:06:52.294Z,9.05
2023-05-20T15:09:20.893Z,9.75
2023-05-20T15:11:50.782Z,9.55
2023-05-20T15:14:19.268Z,9.35
2023-05-20T15:16:47.875Z,9.40
2023-05-20T15:19:16.484Z,8.95
2023-05-20T15:21:45.007Z,9.20
2023-05-20T15:24:13.405Z,8.70
2023-05-20T15:26:42.416Z,9.27
2023-05-20T15:29:12.273Z,9.52
2023-05-20T15:31:40.706Z,9.35
2023-05-20T15:34:09.300Z,9.93
2023-05-20T15:36:37.845Z,10.00
2023-05-20T15:39:06.355Z,9.75
2023-05-20T15:41:34.786Z,9.85
2023-05-20T15:44:03.273Z,8.95
2023-05-20T15:46:33.095Z,10.15
2023-05-20T15:49:01.619Z,9.63
2023-05-20T15:51:30.107Z,9.85
2023-05-20T15:53:58.557Z,8.98
2023-05-20T15:56:27.138Z,9.40
2023-05-20T15:58:55.892Z,9.38
2023-05-20T16:01:26.415Z,9.13
2023-05-20T16:03:58.827Z,9.80
2023-05-20T16:06:27.387Z,9.38
2023-05-20T16:08:55.957Z,9.82
2023-05-20T16:11:24.804Z,9.23
2023-05-20T16:13:56.305Z,10.10
2023-05-20T16:16:25.492Z,9.68
2023-05-20T16:18:54.045Z,9.60
2023-05-20T16:21:24.968Z,9.65
2023-05-20T16:23:53.716Z,9.75
2023-05-20T16:26:22.637Z,9.20
2023-05-20T16:28:51.142Z,9.18
2023-05-20T16:31:19.716Z,9.90
2023-05-20T16:33:48.726Z,9.13
2023-05-20T16:36:17.297Z,8.75
2023-05-20T16:38:47.294Z,9.05
2023-05-20T16:41:16.446Z,10.38
2023-05-20T16:43:44.945Z,9.55
2023-05-20T16:46:14.408Z,9.85
2023-05-20T16:48:43.072Z,10.00
2023-05-20T16:51:11.410Z,9.63
2023-05-20T16:53:39.904Z,9.00
2023-05-20T16:56:09.998Z,10.55
2023-05-20T16:58:38.409Z,10.00
2023-05-20T17:01:08.181Z,9.75
2023-05-20T17:03:36.850Z,9.45
2023-05-20T17:06:05.630Z,9.63
2023-05-20T17:08:34.065Z,10.48
2023-05-20T17:11:02.662Z,10.23
2023-05-20T17:13:32.375Z,10.20
2023-05-20T17:16:01.044Z,10.05
2023-05-20T17:18:29.410Z,10.88
2023-05-20T17:20:57.811Z,10.45
2023-05-20T17:23:26.140Z,10.25
2023-05-20T17:25:54.553Z,10.52
2023-05-20T17:28:22.978Z,12.02
2023-05-20T17:30:52.678Z,10.43
2023-05-20T17:33:21.219Z,10.35
2023-05-20T17:35:49.640Z,11.00
2023-05-20T17:38:18.024Z,11.38
2023-05-20T17:40:46.489Z,11.40
2023-05-20T17:43:14.982Z,11.35
2023-05-20T17:45:43.367Z,10.27
2023-05-20T17:48:13.484Z,11.35
2023-05-20T17:50:42.176Z,11.65
2023-05-20T17:53:10.666Z,11.02
2023-05-20T17:55:39.649Z,11.52
2023-05-20T17:58:08.114Z,11.88
2023-05-20T18:00:41.943Z,11.90
2023-05-20T18:03:10.493Z,11.88
2023-05-20T18:05:40.334Z,12.27
2023-05-20T18:08:08.701Z,11.55
2023-05-20T18:10:37.397Z,12.25
2023-05-20T18:13:06.372Z,12.38
2023-05-20T18:15:34.879Z,12.15
2023-05-20T18:18:03.404Z,12.25
2023-05-20T18:20:31.934Z,12.40
2023-05-20T18:23:01.595Z,12.55
2023-05-20T18:25:29.945Z,12.15
2023-05-20T18:27:58.300Z,12.88
2023-05-20T18:30:26.737Z,11.90
2023-05-20T18:32:55.863Z,12.43
2023-05-20T18:35:24.275Z,13.07
2023-05-20T18:37:52.661Z,13.05
2023-05-20T18:40:22.435Z,13.00
2023-05-20T18:42:50.943Z,12.98
2023-05-20T18:45:19.491Z,13.68
2023-05-20T18:47:48.026Z,12.93
2023-05-20T18:50:16.468Z,13.07
2023-05-20T18:52:45.221Z,13.27
2023-05-20T18:55:13.607Z,13.85
2023-05-20T18:57:43.791Z,12.85
2023-05-20T19:00:12.990Z,12.85
2023-05-20T19:02:41.741Z,13.27
2023-05-20T19:05:10.805Z,13.68
2023-05-20T19:07:39.505Z,13.75
2023-05-20T19:10:08.638Z,12.95
2023-05-20T19:12:37.172Z,13.73
2023-05-20T19:15:08.482Z,13.93
2023-05-20T19:17:37.010Z,13.25
2023-05-20T19:20:07.177Z,13.60
2023-05-20T19:22:35.776Z,13.70
2023-05-20T19:25:05.158Z,13.55
2023-05-20T19:27:33.655Z,13.88
2023-05-20T19:30:02.193Z,13.52
2023-05-20T19:32:32.230Z,13.55
2023-05-20T19:35:00.707Z,13.15
2023-05-20T19:37:29.098Z,13.43
2023-05-20T19:39:57.638Z,13.68
2023-05-20T19:42:26.345Z,14.02
2023-05-20T19:44:55.270Z,13.75
2023-05-20T19:47:23.829Z,13.48
2023-05-20T19:49:53.903Z,13.82
2023-05-20T19:52:22.393Z,13.73
2023-05-20T19:54:51.006Z,14.45
2023-05-20T19:57:19.679Z,14.73
2023-05-20T19:59:48.198Z,14.50
2023-05-20T20:02:16.703Z,14.00
2023-05-20T20:04:45.180Z,14.07
2023-05-20T20:07:15.087Z,14.23
2023-05-20T20:09:45.017Z,13.68
2023-05-20T20:12:13.651Z,12.98
2023-05-20T20:14:42.142Z,13.18
2023-05-20T20:17:13.513Z,14.00
2023-05-20T20:19:42.271Z,13.30
2023-05-20T20:22:10.636Z,14.07
2023-05-20T20:24:40.421Z,14.23
2023-05-20T20:27:09.015Z,14.65
2023-05-20T20:29:37.517Z,13.85
2023-05-20T20:32:06.391Z,14.05
2023-05-20T20:34:34.809Z,13.70
2023-05-20T20:37:03.289Z,13.73
2023-05-20T20:39:31.829Z,14.40
2023-05-20T20:42:02.926Z,13.50
2023-05-20T20:44:32.339Z,13.27
2023-05-20T20:47:04.010Z,13.63
2023-05-20T20:49:33.306Z,13.32
2023-05-20T20:52:02.521Z,13.02
2023-05-20T20:54:34.639Z,14.10
2023-05-20T20:57:04.382Z,13.50
2023-05-20T20:59:32.804Z,13.95
2023-05-20T21:02:03.165Z,14.27
2023-05-20T21:04:33.056Z,13.80
2023-05-20T21:07:02.462Z,12.68
2023-05-20T21:09:30.936Z,14.57
2023-05-20T21:12:00.313Z,13.25
2023-05-20T21:14:30.165Z,13.35
2023-05-20T21:16:58.694Z,13.68
2023-05-20T21:19:27.253Z,14.32
2023-05-20T21:21:55.812Z,12.93
2023-05-20T21:24:24.129Z,13.60
2023-05-20T21:26:52.537Z,13.38
2023-05-20T21:29:21.023Z,12.73
2023-05-20T21:31:50.868Z,13.55
2023-05-20T21:34:19.243Z,14.35
2023-05-20T21:36:47.655Z,13.95
2023-05-20T21:39:16.003Z,13.15
2023-05-20T21:41:44.351Z,13.77
2023-05-20T21:44:12.656Z,14.63
2023-05-20T21:46:41.336Z,13.20
2023-05-20T21:49:11.108Z,13.43
2023-05-20T21:51:39.568Z,13.07
2023-05-20T21:54:07.881Z,12.82
2023-05-20T21:56:36.215Z,13.63
2023-05-20T21:59:04.517Z,13.05
2023-05-20T22:01:33.178Z,13.38
2023-05-20T22:04:01.701Z,12.40
2023-05-20T22:06:36.044Z,13.15
2023-05-20T22:09:04.488Z,13.27
2023-05-20T22:11:33.623Z,12.77
2023-05-20T22:14:02.109Z,13.52
2023-05-20T22:16:30.807Z,12.57
2023-05-20T22:18:59.237Z,13.55
2023-05-20T22:21:28.744Z,13.18
2023-05-20T22:23:58.462Z,12.65
2023-05-20T22:26:26.811Z,12.10
2023-05-20T22:28:55.190Z,12.93
2023-05-20T22:31:23.635Z,12.75
2023-05-20T22:33:52.027Z,12.73
2023-05-20T22:36:21.864Z,13.02
2023-05-20T22:38:50.208Z,12.82
2023-05-20T22:41:19.877Z,12.95
2023-05-20T22:43:48.937Z,12.00
2023-05-20T22:46:17.504Z,12.02
2023-05-20T22:48:46.558Z,12.60
2023-05-20T22:51:15.263Z,12.45
2023-05-20T22:53:43.654Z,12.95
2023-05-20T22:56:12.360Z,12.07
2023-05-20T22:58:42.545Z,12.48
2023-05-20T23:01:11.234Z,11.70
2023-05-20T23:03:39.842Z,12.45
2023-05-20T23:06:08.226Z,13.13
2023-05-20T23:08:36.628Z,12.80
2023-05-20T23:11:05.052Z,11.88
2023-05-20T23:13:34.097Z,12.50
2023-05-20T23:16:05.918Z,12.23
2023-05-20T23:18:34.381Z,12.82
2023-05-20T23:21:02.854Z,11.07
2023-05-20T23:23:32.380Z,12.32
2023-05-20T23:26:01.494Z,11.88
2023-05-20T23:28:30.040Z,12.30
2023-05-20T23:30:58.457Z,11.20
2023-05-20T23:33:29.349Z,11.55
2023-05-20T23:35:57.816Z,12.85
2023-05-20T23:38:26.184Z,12.23
2023-05-20T23:40:54.507Z,11.82
2023-05-20T23:43:23.015Z,10.77
2023-05-20T23:45:51.513Z,11.15
2023-05-20T23:48:20.671Z,11.10
2023-05-20T23:50:50.521Z,11.30
2023-05-20T23:53:18.928Z,12.00
2023-05-20T23:55:49.446Z,11.98
2023-05-20T23:58:18.036Z,12.55
